Portada
METAR-TAF:

METAR-TAF

Aeroports :

La Argelia

Loja, Equador

latitud: 03-59-45S, longitud: 079-22-19W, altitud: 1236 m

Observació

L'informe es va fer fa 13 hores i 44 minuts, a les 19:00 UTC
Vent 19 kt del Est
Temperatura 27°C
Humitat 45%
Pressió 1017 hPa
Visibilitat 10 km o més
Cel ennuvolat a una alçada de 4000 ft
xàfecs en les proximitats

METAR: SECA 181900Z 08019KT 9999 VCSH BKN040 27/14 Q1017

Hora: 03:44 (08:44 UTC)


TAF: manca

Observacions i pronòstics meteorològics de més de 4000 aeroports (METAR i TAF).

Les estacions disponibles són els punts grocs i vermells al mapa.

Posi el ratolí al punt desitjat per veure el nom de l'estació.

Feu clic per veure les observacions i els pronòstics meteorològics.

Per canviar el mapa: feu clic els botons verds amb una creu de color negre per apropar; al botó verd amb un guió per allunyar la imatge; o en les fletxes verdes per a mapes adjacents.


METAR-TAF: